sensor_id;sensor_type;location;lat;lon;timestamp;P1;durP1;ratioP1;P2;durP2;ratioP2
3052;SDS011;1536;51.098;6.414;2024-01-11T00:02:10;26.20;;;19.25;;
3052;SDS011;1536;51.098;6.414;2024-01-11T00:04:37;31.63;;;20.20;;
3052;SDS011;1536;51.098;6.414;2024-01-11T00:07:05;38.53;;;21.05;;
3052;SDS011;1536;51.098;6.414;2024-01-11T00:09:31;38.05;;;21.23;;
3052;SDS011;1536;51.098;6.414;2024-01-11T00:11:58;32.85;;;20.00;;
3052;SDS011;1536;51.098;6.414;2024-01-11T00:14:25;25.48;;;18.60;;
3052;SDS011;1536;51.098;6.414;2024-01-11T00:16:52;29.30;;;18.45;;
3052;SDS011;1536;51.098;6.414;2024-01-11T00:19:20;29.48;;;19.17;;
3052;SDS011;1536;51.098;6.414;2024-01-11T00:21:46;31.77;;;19.25;;
3052;SDS011;1536;51.098;6.414;2024-01-11T00:24:13;32.20;;;19.75;;
3052;SDS011;1536;51.098;6.414;2024-01-11T00:26:40;30.35;;;21.25;;
3052;SDS011;1536;51.098;6.414;2024-01-11T00:29:07;34.33;;;20.15;;
3052;SDS011;1536;51.098;6.414;2024-01-11T00:31:34;30.25;;;18.90;;
3052;SDS011;1536;51.098;6.414;2024-01-11T00:34:01;33.90;;;20.08;;
3052;SDS011;1536;51.098;6.414;2024-01-11T00:36:29;30.33;;;17.90;;
3052;SDS011;1536;51.098;6.414;2024-01-11T00:38:58;28.83;;;19.00;;
3052;SDS011;1536;51.098;6.414;2024-01-11T00:41:24;27.65;;;18.42;;
3052;SDS011;1536;51.098;6.414;2024-01-11T00:43:51;27.70;;;20.02;;
3052;SDS011;1536;51.098;6.414;2024-01-11T00:46:18;37.20;;;20.63;;
3052;SDS011;1536;51.098;6.414;2024-01-11T00:48:45;37.97;;;21.55;;
3052;SDS011;1536;51.098;6.414;2024-01-11T00:51:12;32.58;;;19.08;;
3052;SDS011;1536;51.098;6.414;2024-01-11T00:53:40;36.67;;;21.45;;
3052;SDS011;1536;51.098;6.414;2024-01-11T00:56:14;30.63;;;20.08;;
3052;SDS011;1536;51.098;6.414;2024-01-11T00:58:41;33.08;;;19.92;;
3052;SDS011;1536;51.098;6.414;2024-01-11T01:01:08;31.08;;;18.73;;
3052;SDS011;1536;51.098;6.414;2024-01-11T01:03:35;32.97;;;19.85;;
3052;SDS011;1536;51.098;6.414;2024-01-11T01:06:02;30.60;;;20.95;;
3052;SDS011;1536;51.098;6.414;2024-01-11T01:08:29;29.00;;;19.83;;
3052;SDS011;1536;51.098;6.414;2024-01-11T01:10:58;30.75;;;19.45;;
3052;SDS011;1536;51.098;6.414;2024-01-11T01:13:25;40.13;;;22.88;;
3052;SDS011;1536;51.098;6.414;2024-01-11T01:15:51;33.45;;;20.27;;
3052;SDS011;1536;51.098;6.414;2024-01-11T01:18:18;33.10;;;22.13;;
3052;SDS011;1536;51.098;6.414;2024-01-11T01:20:45;35.83;;;23.17;;
3052;SDS011;1536;51.098;6.414;2024-01-11T01:23:11;36.25;;;20.85;;
3052;SDS011;1536;51.098;6.414;2024-01-11T01:25:38;32.95;;;19.90;;
3052;SDS011;1536;51.098;6.414;2024-01-11T01:28:06;31.75;;;19.75;;
3052;SDS011;1536;51.098;6.414;2024-01-11T01:30:33;37.88;;;21.20;;
3052;SDS011;1536;51.098;6.414;2024-01-11T01:33:00;30.30;;;21.25;;
3052;SDS011;1536;51.098;6.414;2024-01-11T01:35:27;30.90;;;21.60;;
3052;SDS011;1536;51.098;6.414;2024-01-11T01:37:53;28.95;;;20.13;;
3052;SDS011;1536;51.098;6.414;2024-01-11T01:40:20;35.63;;;20.63;;
3052;SDS011;1536;51.098;6.414;2024-01-11T01:42:47;37.05;;;21.70;;
3052;SDS011;1536;51.098;6.414;2024-01-11T01:45:15;33.80;;;18.67;;
3052;SDS011;1536;51.098;6.414;2024-01-11T01:47:42;32.80;;;20.38;;
3052;SDS011;1536;51.098;6.414;2024-01-11T01:50:10;31.95;;;20.88;;
3052;SDS011;1536;51.098;6.414;2024-01-11T01:52:38;36.65;;;21.70;;
3052;SDS011;1536;51.098;6.414;2024-01-11T01:55:09;35.78;;;21.10;;
3052;SDS011;1536;51.098;6.414;2024-01-11T01:57:36;30.23;;;19.92;;
3052;SDS011;1536;51.098;6.414;2024-01-11T02:00:06;33.70;;;20.88;;
3052;SDS011;1536;51.098;6.414;2024-01-11T02:02:36;32.03;;;20.30;;
3052;SDS011;1536;51.098;6.414;2024-01-11T02:05:04;34.25;;;21.45;;
3052;SDS011;1536;51.098;6.414;2024-01-11T02:07:31;33.78;;;20.67;;
3052;SDS011;1536;51.098;6.414;2024-01-11T02:09:58;32.60;;;19.77;;
3052;SDS011;1536;51.098;6.414;2024-01-11T02:12:25;33.92;;;20.50;;
3052;SDS011;1536;51.098;6.414;2024-01-11T02:14:53;35.28;;;21.27;;
3052;SDS011;1536;51.098;6.414;2024-01-11T02:17:20;31.38;;;20.85;;
3052;SDS011;1536;51.098;6.414;2024-01-11T02:19:48;37.78;;;22.00;;
3052;SDS011;1536;51.098;6.414;2024-01-11T02:22:15;32.70;;;19.50;;
3052;SDS011;1536;51.098;6.414;2024-01-11T02:24:48;31.20;;;18.48;;
3052;SDS011;1536;51.098;6.414;2024-01-11T02:27:14;38.30;;;21.75;;
3052;SDS011;1536;51.098;6.414;2024-01-11T02:29:41;31.15;;;19.70;;
3052;SDS011;1536;51.098;6.414;2024-01-11T02:32:08;29.08;;;18.88;;
3052;SDS011;1536;51.098;6.414;2024-01-11T02:34:35;37.50;;;20.73;;
3052;SDS011;1536;51.098;6.414;2024-01-11T02:37:02;34.67;;;19.65;;
3052;SDS011;1536;51.098;6.414;2024-01-11T02:39:30;32.40;;;21.33;;
3052;SDS011;1536;51.098;6.414;2024-01-11T02:41:59;27.70;;;19.52;;
3052;SDS011;1536;51.098;6.414;2024-01-11T02:44:27;25.05;;;20.30;;
3052;SDS011;1536;51.098;6.414;2024-01-11T02:46:54;27.35;;;18.98;;
3052;SDS011;1536;51.098;6.414;2024-01-11T02:49:20;28.42;;;20.02;;
3052;SDS011;1536;51.098;6.414;2024-01-11T02:51:47;29.38;;;19.60;;
3052;SDS011;1536;51.098;6.414;2024-01-11T02:54:14;34.75;;;21.65;;
3052;SDS011;1536;51.098;6.414;2024-01-11T02:56:40;29.30;;;19.75;;
3052;SDS011;1536;51.098;6.414;2024-01-11T02:59:08;34.42;;;20.30;;
3052;SDS011;1536;51.098;6.414;2024-01-11T03:01:35;33.35;;;21.45;;
3052;SDS011;1536;51.098;6.414;2024-01-11T03:04:02;30.50;;;20.27;;
3052;SDS011;1536;51.098;6.414;2024-01-11T03:06:29;31.50;;;20.33;;
3052;SDS011;1536;51.098;6.414;2024-01-11T03:08:56;34.75;;;19.30;;
3052;SDS011;1536;51.098;6.414;2024-01-11T03:11:22;35.50;;;20.65;;
3052;SDS011;1536;51.098;6.414;2024-01-11T03:13:49;37.83;;;21.63;;
3052;SDS011;1536;51.098;6.414;2024-01-11T03:16:17;32.20;;;20.70;;
3052;SDS011;1536;51.098;6.414;2024-01-11T03:18:44;35.20;;;21.95;;
3052;SDS011;1536;51.098;6.414;2024-01-11T03:21:11;28.85;;;20.13;;
3052;SDS011;1536;51.098;6.414;2024-01-11T03:23:37;30.65;;;21.27;;
3052;SDS011;1536;51.098;6.414;2024-01-11T03:26:11;29.20;;;19.50;;
3052;SDS011;1536;51.098;6.414;2024-01-11T03:28:39;37.65;;;19.15;;
3052;SDS011;1536;51.098;6.414;2024-01-11T03:31:06;31.98;;;20.27;;
3052;SDS011;1536;51.098;6.414;2024-01-11T03:33:35;41.60;;;20.90;;
3052;SDS011;1536;51.098;6.414;2024-01-11T03:36:06;30.45;;;19.52;;
3052;SDS011;1536;51.098;6.414;2024-01-11T03:38:33;34.47;;;20.42;;
3052;SDS011;1536;51.098;6.414;2024-01-11T03:41:00;36.65;;;21.15;;
3052;SDS011;1536;51.098;6.414;2024-01-11T03:43:27;35.53;;;21.30;;
3052;SDS011;1536;51.098;6.414;2024-01-11T03:45:54;30.67;;;21.23;;
3052;SDS011;1536;51.098;6.414;2024-01-11T03:48:20;39.85;;;19.95;;
3052;SDS011;1536;51.098;6.414;2024-01-11T03:50:48;29.35;;;19.08;;
3052;SDS011;1536;51.098;6.414;2024-01-11T03:53:15;26.88;;;18.85;;
3052;SDS011;1536;51.098;6.414;2024-01-11T03:55:42;25.55;;;18.45;;
3052;SDS011;1536;51.098;6.414;2024-01-11T03:58:08;33.13;;;19.52;;
3052;SDS011;1536;51.098;6.414;2024-01-11T04:00:35;29.92;;;21.00;;
3052;SDS011;1536;51.098;6.414;2024-01-11T04:03:02;36.20;;;20.98;;
3052;SDS011;1536;51.098;6.414;2024-01-11T04:05:29;31.27;;;18.35;;
3052;SDS011;1536;51.098;6.414;2024-01-11T04:07:58;35.05;;;21.23;;
3052;SDS011;1536;51.098;6.414;2024-01-11T04:10:24;30.60;;;18.90;;
3052;SDS011;1536;51.098;6.414;2024-01-11T04:12:51;31.00;;;20.05;;
3052;SDS011;1536;51.098;6.414;2024-01-11T04:15:18;38.78;;;21.95;;
3052;SDS011;1536;51.098;6.414;2024-01-11T04:17:45;31.40;;;20.50;;
3052;SDS011;1536;51.098;6.414;2024-01-11T04:20:12;30.27;;;21.17;;
3052;SDS011;1536;51.098;6.414;2024-01-11T04:22:38;32.58;;;20.50;;
3052;SDS011;1536;51.098;6.414;2024-01-11T04:25:07;33.08;;;20.67;;
3052;SDS011;1536;51.098;6.414;2024-01-11T04:27:34;37.10;;;19.17;;
3052;SDS011;1536;51.098;6.414;2024-01-11T04:30:00;33.55;;;20.13;;
3052;SDS011;1536;51.098;6.414;2024-01-11T04:32:27;39.53;;;21.05;;
3052;SDS011;1536;51.098;6.414;2024-01-11T04:34:54;37.92;;;21.50;;
3052;SDS011;1536;51.098;6.414;2024-01-11T04:37:21;34.92;;;21.80;;
3052;SDS011;1536;51.098;6.414;2024-01-11T04:39:48;33.38;;;21.23;;
3052;SDS011;1536;51.098;6.414;2024-01-11T04:42:16;25.92;;;19.08;;
3052;SDS011;1536;51.098;6.414;2024-01-11T04:44:42;31.83;;;19.85;;
3052;SDS011;1536;51.098;6.414;2024-01-11T04:47:09;37.40;;;20.92;;
3052;SDS011;1536;51.098;6.414;2024-01-11T04:49:36;27.42;;;18.67;;
3052;SDS011;1536;51.098;6.414;2024-01-11T04:52:03;36.83;;;21.48;;
3052;SDS011;1536;51.098;6.414;2024-01-11T04:54:30;29.83;;;19.88;;
3052;SDS011;1536;51.098;6.414;2024-01-11T04:56:56;35.08;;;20.50;;
3052;SDS011;1536;51.098;6.414;2024-01-11T04:59:24;31.95;;;20.95;;
3052;SDS011;1536;51.098;6.414;2024-01-11T05:01:51;39.80;;;22.77;;
3052;SDS011;1536;51.098;6.414;2024-01-11T05:04:18;31.65;;;20.35;;
3052;SDS011;1536;51.098;6.414;2024-01-11T05:06:44;35.33;;;20.00;;
3052;SDS011;1536;51.098;6.414;2024-01-11T05:09:11;37.38;;;21.08;;
3052;SDS011;1536;51.098;6.414;2024-01-11T05:11:39;34.85;;;22.90;;
3052;SDS011;1536;51.098;6.414;2024-01-11T05:14:05;39.80;;;23.33;;
3052;SDS011;1536;51.098;6.414;2024-01-11T05:16:33;35.78;;;24.10;;
3052;SDS011;1536;51.098;6.414;2024-01-11T05:19:00;37.67;;;23.17;;
3052;SDS011;1536;51.098;6.414;2024-01-11T05:21:27;36.30;;;23.35;;
3052;SDS011;1536;51.098;6.414;2024-01-11T05:23:54;35.75;;;23.67;;
3052;SDS011;1536;51.098;6.414;2024-01-11T05:26:20;45.03;;;24.00;;
3052;SDS011;1536;51.098;6.414;2024-01-11T05:28:47;44.88;;;24.42;;
3052;SDS011;1536;51.098;6.414;2024-01-11T05:31:15;43.15;;;25.45;;
3052;SDS011;1536;51.098;6.414;2024-01-11T05:33:43;43.67;;;25.63;;
3052;SDS011;1536;51.098;6.414;2024-01-11T05:36:10;39.35;;;25.13;;
3052;SDS011;1536;51.098;6.414;2024-01-11T05:38:38;43.78;;;25.27;;
3052;SDS011;1536;51.098;6.414;2024-01-11T05:41:05;46.08;;;27.75;;
3052;SDS011;1536;51.098;6.414;2024-01-11T05:43:31;37.40;;;24.08;;
3052;SDS011;1536;51.098;6.414;2024-01-11T05:45:58;42.97;;;24.88;;
3052;SDS011;1536;51.098;6.414;2024-01-11T05:48:25;38.85;;;24.10;;
3052;SDS011;1536;51.098;6.414;2024-01-11T05:50:53;43.92;;;25.33;;
3052;SDS011;1536;51.098;6.414;2024-01-11T05:53:20;44.58;;;26.20;;
3052;SDS011;1536;51.098;6.414;2024-01-11T05:55:47;33.70;;;21.85;;
3052;SDS011;1536;51.098;6.414;2024-01-11T05:58:14;34.97;;;23.30;;
3052;SDS011;1536;51.098;6.414;2024-01-11T06:00:41;43.88;;;24.92;;
3052;SDS011;1536;51.098;6.414;2024-01-11T06:03:08;41.95;;;25.85;;
3052;SDS011;1536;51.098;6.414;2024-01-11T06:05:34;45.45;;;25.92;;
3052;SDS011;1536;51.098;6.414;2024-01-11T06:08:03;46.80;;;27.67;;
3052;SDS011;1536;51.098;6.414;2024-01-11T06:10:30;46.08;;;25.95;;
3052;SDS011;1536;51.098;6.414;2024-01-11T06:12:57;41.20;;;24.58;;
3052;SDS011;1536;51.098;6.414;2024-01-11T06:15:23;44.10;;;25.05;;
3052;SDS011;1536;51.098;6.414;2024-01-11T06:17:50;42.33;;;25.55;;
3052;SDS011;1536;51.098;6.414;2024-01-11T06:20:17;40.55;;;26.10;;
3052;SDS011;1536;51.098;6.414;2024-01-11T06:22:44;42.58;;;28.35;;
3052;SDS011;1536;51.098;6.414;2024-01-11T06:25:12;36.85;;;25.85;;
3052;SDS011;1536;51.098;6.414;2024-01-11T06:27:38;41.15;;;25.73;;
3052;SDS011;1536;51.098;6.414;2024-01-11T06:30:08;41.83;;;27.08;;
3052;SDS011;1536;51.098;6.414;2024-01-11T06:32:35;46.22;;;25.90;;
3052;SDS011;1536;51.098;6.414;2024-01-11T06:35:01;42.55;;;25.63;;
3052;SDS011;1536;51.098;6.414;2024-01-11T06:37:29;50.13;;;27.88;;
3052;SDS011;1536;51.098;6.414;2024-01-11T06:39:55;41.50;;;25.55;;
3052;SDS011;1536;51.098;6.414;2024-01-11T06:42:24;48.22;;;28.30;;
3052;SDS011;1536;51.098;6.414;2024-01-11T06:44:51;42.08;;;25.58;;
3052;SDS011;1536;51.098;6.414;2024-01-11T06:47:17;45.25;;;24.08;;
3052;SDS011;1536;51.098;6.414;2024-01-11T06:49:44;42.53;;;27.05;;
3052;SDS011;1536;51.098;6.414;2024-01-11T06:52:11;46.15;;;27.92;;
3052;SDS011;1536;51.098;6.414;2024-01-11T06:54:39;44.97;;;26.75;;
3052;SDS011;1536;51.098;6.414;2024-01-11T06:57:06;49.78;;;28.38;;
3052;SDS011;1536;51.098;6.414;2024-01-11T06:59:34;43.55;;;26.98;;
3052;SDS011;1536;51.098;6.414;2024-01-11T07:02:01;39.30;;;25.63;;
3052;SDS011;1536;51.098;6.414;2024-01-11T07:04:27;44.67;;;25.92;;
3052;SDS011;1536;51.098;6.414;2024-01-11T07:06:54;40.35;;;24.20;;
3052;SDS011;1536;51.098;6.414;2024-01-11T07:09:21;43.58;;;26.35;;
3052;SDS011;1536;51.098;6.414;2024-01-11T07:11:48;37.10;;;24.92;;
3052;SDS011;1536;51.098;6.414;2024-01-11T07:14:14;49.70;;;26.50;;
3052;SDS011;1536;51.098;6.414;2024-01-11T07:16:42;48.15;;;25.33;;
3052;SDS011;1536;51.098;6.414;2024-01-11T07:19:09;34.47;;;22.75;;
3052;SDS011;1536;51.098;6.414;2024-01-11T07:21:36;42.08;;;24.35;;
3052;SDS011;1536;51.098;6.414;2024-01-11T07:24:03;42.15;;;26.52;;
3052;SDS011;1536;51.098;6.414;2024-01-11T07:26:30;37.95;;;24.48;;
3052;SDS011;1536;51.098;6.414;2024-01-11T07:28:56;45.33;;;27.58;;
3052;SDS011;1536;51.098;6.414;2024-01-11T07:31:23;39.55;;;25.50;;
3052;SDS011;1536;51.098;6.414;2024-01-11T07:33:52;46.67;;;26.02;;
3052;SDS011;1536;51.098;6.414;2024-01-11T07:36:18;48.45;;;24.67;;
3052;SDS011;1536;51.098;6.414;2024-01-11T07:38:45;40.90;;;25.48;;
3052;SDS011;1536;51.098;6.414;2024-01-11T07:41:12;39.00;;;25.42;;
3052;SDS011;1536;51.098;6.414;2024-01-11T07:43:39;44.38;;;24.80;;
3052;SDS011;1536;51.098;6.414;2024-01-11T07:46:06;44.30;;;25.85;;
3052;SDS011;1536;51.098;6.414;2024-01-11T07:48:33;42.83;;;26.05;;
3052;SDS011;1536;51.098;6.414;2024-01-11T07:51:01;47.03;;;25.50;;
3052;SDS011;1536;51.098;6.414;2024-01-11T07:53:28;45.75;;;25.75;;
3052;SDS011;1536;51.098;6.414;2024-01-11T07:55:56;40.20;;;24.85;;
3052;SDS011;1536;51.098;6.414;2024-01-11T07:58:23;43.55;;;27.25;;
3052;SDS011;1536;51.098;6.414;2024-01-11T08:00:50;40.08;;;24.45;;
3052;SDS011;1536;51.098;6.414;2024-01-11T08:03:19;36.10;;;24.65;;
3052;SDS011;1536;51.098;6.414;2024-01-11T08:05:46;48.58;;;27.15;;
3052;SDS011;1536;51.098;6.414;2024-01-11T08:08:16;44.75;;;25.55;;
3052;SDS011;1536;51.098;6.414;2024-01-11T08:10:43;47.85;;;28.33;;
3052;SDS011;1536;51.098;6.414;2024-01-11T08:13:10;42.00;;;26.98;;
3052;SDS011;1536;51.098;6.414;2024-01-11T08:15:38;44.15;;;26.85;;
3052;SDS011;1536;51.098;6.414;2024-01-11T08:18:04;53.63;;;27.85;;
3052;SDS011;1536;51.098;6.414;2024-01-11T08:20:31;42.67;;;25.40;;
3052;SDS011;1536;51.098;6.414;2024-01-11T08:22:58;49.85;;;26.88;;
3052;SDS011;1536;51.098;6.414;2024-01-11T08:25:26;46.40;;;27.58;;
3052;SDS011;1536;51.098;6.414;2024-01-11T08:27:53;46.75;;;26.65;;
3052;SDS011;1536;51.098;6.414;2024-01-11T08:30:19;55.00;;;28.83;;
3052;SDS011;1536;51.098;6.414;2024-01-11T08:32:46;48.75;;;27.77;;
3052;SDS011;1536;51.098;6.414;2024-01-11T08:35:13;42.17;;;24.90;;
3052;SDS011;1536;51.098;6.414;2024-01-11T08:37:41;45.45;;;26.08;;
3052;SDS011;1536;51.098;6.414;2024-01-11T08:40:08;42.55;;;26.60;;
3052;SDS011;1536;51.098;6.414;2024-01-11T08:42:37;36.80;;;24.50;;
3052;SDS011;1536;51.098;6.414;2024-01-11T08:45:05;38.55;;;24.38;;
3052;SDS011;1536;51.098;6.414;2024-01-11T08:47:32;43.22;;;26.50;;
3052;SDS011;1536;51.098;6.414;2024-01-11T08:50:00;50.60;;;26.33;;
3052;SDS011;1536;51.098;6.414;2024-01-11T08:52:31;46.50;;;27.05;;
3052;SDS011;1536;51.098;6.414;2024-01-11T08:54:57;41.35;;;26.35;;
3052;SDS011;1536;51.098;6.414;2024-01-11T08:57:24;40.55;;;25.85;;
3052;SDS011;1536;51.098;6.414;2024-01-11T08:59:53;49.38;;;28.58;;
3052;SDS011;1536;51.098;6.414;2024-01-11T09:02:20;45.08;;;26.58;;
3052;SDS011;1536;51.098;6.414;2024-01-11T09:04:47;54.35;;;29.42;;
3052;SDS011;1536;51.098;6.414;2024-01-11T09:07:14;42.10;;;26.70;;
3052;SDS011;1536;51.098;6.414;2024-01-11T09:09:41;38.30;;;26.52;;
3052;SDS011;1536;51.098;6.414;2024-01-11T09:12:09;42.97;;;26.80;;
3052;SDS011;1536;51.098;6.414;2024-01-11T09:14:35;38.67;;;27.15;;
3052;SDS011;1536;51.098;6.414;2024-01-11T09:17:04;46.08;;;28.50;;
3052;SDS011;1536;51.098;6.414;2024-01-11T09:19:31;50.63;;;29.17;;
3052;SDS011;1536;51.098;6.414;2024-01-11T09:21:58;49.08;;;29.83;;
3052;SDS011;1536;51.098;6.414;2024-01-11T09:24:25;49.67;;;28.98;;
3052;SDS011;1536;51.098;6.414;2024-01-11T09:26:52;50.13;;;29.40;;
3052;SDS011;1536;51.098;6.414;2024-01-11T09:29:19;45.25;;;28.02;;
3052;SDS011;1536;51.098;6.414;2024-01-11T09:31:46;50.70;;;28.40;;
3052;SDS011;1536;51.098;6.414;2024-01-11T09:34:14;49.13;;;29.45;;
3052;SDS011;1536;51.098;6.414;2024-01-11T09:36:40;47.40;;;27.50;;
3052;SDS011;1536;51.098;6.414;2024-01-11T09:39:07;53.47;;;29.75;;
3052;SDS011;1536;51.098;6.414;2024-01-11T09:41:35;49.97;;;29.10;;
3052;SDS011;1536;51.098;6.414;2024-01-11T09:44:04;51.55;;;28.00;;
3052;SDS011;1536;51.098;6.414;2024-01-11T09:46:37;45.10;;;27.83;;
3052;SDS011;1536;51.098;6.414;2024-01-11T09:49:04;47.47;;;29.42;;
3052;SDS011;1536;51.098;6.414;2024-01-11T09:51:33;50.35;;;28.40;;
3052;SDS011;1536;51.098;6.414;2024-01-11T09:54:03;49.03;;;27.98;;
3052;SDS011;1536;51.098;6.414;2024-01-11T09:56:32;40.97;;;27.48;;
3052;SDS011;1536;51.098;6.414;2024-01-11T09:59:00;47.42;;;28.50;;
3052;SDS011;1536;51.098;6.414;2024-01-11T10:01:27;51.58;;;30.02;;
3052;SDS011;1536;51.098;6.414;2024-01-11T10:03:54;51.45;;;30.30;;
3052;SDS011;1536;51.098;6.414;2024-01-11T10:06:21;46.67;;;29.70;;
3052;SDS011;1536;51.098;6.414;2024-01-11T10:08:53;44.75;;;28.23;;
3052;SDS011;1536;51.098;6.414;2024-01-11T10:11:20;44.63;;;29.85;;
3052;SDS011;1536;51.098;6.414;2024-01-11T10:13:47;51.53;;;31.08;;
3052;SDS011;1536;51.098;6.414;2024-01-11T10:16:13;49.10;;;29.55;;
3052;SDS011;1536;51.098;6.414;2024-01-11T10:18:40;58.80;;;30.48;;
3052;SDS011;1536;51.098;6.414;2024-01-11T10:21:07;50.17;;;28.92;;
3052;SDS011;1536;51.098;6.414;2024-01-11T10:23:34;47.58;;;28.98;;
3052;SDS011;1536;51.098;6.414;2024-01-11T10:26:03;53.30;;;29.30;;
3052;SDS011;1536;51.098;6.414;2024-01-11T10:28:32;58.28;;;30.58;;
3052;SDS011;1536;51.098;6.414;2024-01-11T10:31:02;58.22;;;28.60;;
3052;SDS011;1536;51.098;6.414;2024-01-11T10:33:29;42.53;;;28.90;;
3052;SDS011;1536;51.098;6.414;2024-01-11T10:35:56;42.78;;;27.40;;
3052;SDS011;1536;51.098;6.414;2024-01-11T10:38:22;53.00;;;28.85;;
3052;SDS011;1536;51.098;6.414;2024-01-11T10:40:52;53.72;;;31.92;;
3052;SDS011;1536;51.098;6.414;2024-01-11T10:43:22;46.13;;;28.75;;
3052;SDS011;1536;51.098;6.414;2024-01-11T10:45:49;46.88;;;29.52;;
3052;SDS011;1536;51.098;6.414;2024-01-11T10:48:20;50.67;;;30.55;;
3052;SDS011;1536;51.098;6.414;2024-01-11T10:50:49;49.53;;;30.08;;
3052;SDS011;1536;51.098;6.414;2024-01-11T10:53:25;53.47;;;29.30;;
3052;SDS011;1536;51.098;6.414;2024-01-11T10:55:57;46.47;;;28.75;;
3052;SDS011;1536;51.098;6.414;2024-01-11T10:58:26;51.78;;;28.30;;
3052;SDS011;1536;51.098;6.414;2024-01-11T11:00:54;47.03;;;26.60;;
3052;SDS011;1536;51.098;6.414;2024-01-11T11:03:21;46.35;;;28.30;;
3052;SDS011;1536;51.098;6.414;2024-01-11T11:05:50;45.50;;;27.75;;
3052;SDS011;1536;51.098;6.414;2024-01-11T11:08:20;46.40;;;29.25;;
3052;SDS011;1536;51.098;6.414;2024-01-11T11:10:50;40.03;;;27.08;;
3052;SDS011;1536;51.098;6.414;2024-01-11T11:13:20;45.78;;;27.75;;
3052;SDS011;1536;51.098;6.414;2024-01-11T11:15:49;56.00;;;31.63;;
3052;SDS011;1536;51.098;6.414;2024-01-11T11:18:16;50.45;;;30.17;;
3052;SDS011;1536;51.098;6.414;2024-01-11T11:20:44;48.53;;;28.85;;
3052;SDS011;1536;51.098;6.414;2024-01-11T11:23:12;52.65;;;31.85;;
3052;SDS011;1536;51.098;6.414;2024-01-11T11:25:42;49.38;;;29.23;;
3052;SDS011;1536;51.098;6.414;2024-01-11T11:28:11;46.60;;;29.30;;
3052;SDS011;1536;51.098;6.414;2024-01-11T11:30:39;51.25;;;30.65;;
3052;SDS011;1536;51.098;6.414;2024-01-11T11:33:09;38.97;;;25.67;;
3052;SDS011;1536;51.098;6.414;2024-01-11T11:35:37;41.00;;;27.83;;
3052;SDS011;1536;51.098;6.414;2024-01-11T11:38:04;41.55;;;26.00;;
3052;SDS011;1536;51.098;6.414;2024-01-11T11:40:32;51.20;;;29.15;;
3052;SDS011;1536;51.098;6.414;2024-01-11T11:43:01;43.17;;;26.52;;
3052;SDS011;1536;51.098;6.414;2024-01-11T11:45:30;48.92;;;28.35;;
3052;SDS011;1536;51.098;6.414;2024-01-11T11:47:57;47.63;;;26.85;;
3052;SDS011;1536;51.098;6.414;2024-01-11T11:50:26;46.90;;;29.25;;
3052;SDS011;1536;51.098;6.414;2024-01-11T11:52:53;38.95;;;25.63;;
3052;SDS011;1536;51.098;6.414;2024-01-11T11:55:21;50.58;;;29.00;;
3052;SDS011;1536;51.098;6.414;2024-01-11T11:57:48;40.28;;;25.40;;
3052;SDS011;1536;51.098;6.414;2024-01-11T12:00:16;46.42;;;28.10;;
3052;SDS011;1536;51.098;6.414;2024-01-11T12:02:43;49.13;;;28.60;;
3052;SDS011;1536;51.098;6.414;2024-01-11T12:05:10;38.70;;;26.40;;
3052;SDS011;1536;51.098;6.414;2024-01-11T12:07:38;39.58;;;25.63;;
3052;SDS011;1536;51.098;6.414;2024-01-11T12:10:05;39.97;;;25.10;;
3052;SDS011;1536;51.098;6.414;2024-01-11T12:12:33;50.08;;;25.90;;
3052;SDS011;1536;51.098;6.414;2024-01-11T12:15:02;38.15;;;24.42;;
3052;SDS011;1536;51.098;6.414;2024-01-11T12:17:29;42.92;;;25.27;;
3052;SDS011;1536;51.098;6.414;2024-01-11T12:19:56;41.03;;;27.35;;
3052;SDS011;1536;51.098;6.414;2024-01-11T12:22:23;41.30;;;26.83;;
3052;SDS011;1536;51.098;6.414;2024-01-11T12:24:51;50.38;;;27.15;;
3052;SDS011;1536;51.098;6.414;2024-01-11T12:27:18;43.63;;;25.52;;
3052;SDS011;1536;51.098;6.414;2024-01-11T12:29:45;40.65;;;24.05;;
3052;SDS011;1536;51.098;6.414;2024-01-11T12:32:13;36.70;;;23.52;;
3052;SDS011;1536;51.098;6.414;2024-01-11T12:34:41;38.03;;;25.27;;
3052;SDS011;1536;51.098;6.414;2024-01-11T12:37:09;42.80;;;24.73;;
3052;SDS011;1536;51.098;6.414;2024-01-11T12:39:37;36.45;;;22.38;;
3052;SDS011;1536;51.098;6.414;2024-01-11T12:42:05;40.50;;;24.27;;
3052;SDS011;1536;51.098;6.414;2024-01-11T12:44:34;41.28;;;26.58;;
3052;SDS011;1536;51.098;6.414;2024-01-11T12:47:03;44.88;;;26.10;;
3052;SDS011;1536;51.098;6.414;2024-01-11T12:49:31;45.08;;;26.38;;
3052;SDS011;1536;51.098;6.414;2024-01-11T12:51:58;41.10;;;25.05;;
3052;SDS011;1536;51.098;6.414;2024-01-11T12:54:25;41.97;;;24.95;;
3052;SDS011;1536;51.098;6.414;2024-01-11T12:56:52;39.97;;;23.25;;
3052;SDS011;1536;51.098;6.414;2024-01-11T12:59:21;45.33;;;25.55;;
3052;SDS011;1536;51.098;6.414;2024-01-11T13:01:51;39.90;;;24.92;;
3052;SDS011;1536;51.098;6.414;2024-01-11T13:04:18;35.03;;;23.08;;
3052;SDS011;1536;51.098;6.414;2024-01-11T13:06:45;37.92;;;25.80;;
3052;SDS011;1536;51.098;6.414;2024-01-11T13:09:12;42.70;;;24.48;;
3052;SDS011;1536;51.098;6.414;2024-01-11T13:11:39;46.22;;;25.23;;
3052;SDS011;1536;51.098;6.414;2024-01-11T13:14:06;45.13;;;26.88;;
3052;SDS011;1536;51.098;6.414;2024-01-11T13:16:40;44.05;;;26.25;;
3052;SDS011;1536;51.098;6.414;2024-01-11T13:19:07;49.95;;;28.40;;
3052;SDS011;1536;51.098;6.414;2024-01-11T13:21:35;39.67;;;26.60;;
3052;SDS011;1536;51.098;6.414;2024-01-11T13:24:03;43.25;;;25.42;;
3052;SDS011;1536;51.098;6.414;2024-01-11T13:26:30;42.03;;;26.33;;
3052;SDS011;1536;51.098;6.414;2024-01-11T13:28:57;37.97;;;24.67;;
3052;SDS011;1536;51.098;6.414;2024-01-11T13:31:24;40.85;;;26.45;;
3052;SDS011;1536;51.098;6.414;2024-01-11T13:33:52;43.35;;;25.40;;
3052;SDS011;1536;51.098;6.414;2024-01-11T13:36:20;38.35;;;25.17;;
3052;SDS011;1536;51.098;6.414;2024-01-11T13:38:46;41.25;;;24.83;;
3052;SDS011;1536;51.098;6.414;2024-01-11T13:41:14;38.15;;;25.05;;
3052;SDS011;1536;51.098;6.414;2024-01-11T13:43:42;40.33;;;23.85;;
3052;SDS011;1536;51.098;6.414;2024-01-11T13:46:08;32.83;;;22.65;;
3052;SDS011;1536;51.098;6.414;2024-01-11T13:48:37;41.47;;;25.10;;
3052;SDS011;1536;51.098;6.414;2024-01-11T13:51:05;36.60;;;24.17;;
3052;SDS011;1536;51.098;6.414;2024-01-11T13:53:34;36.00;;;24.48;;
3052;SDS011;1536;51.098;6.414;2024-01-11T13:56:00;34.80;;;24.02;;
3052;SDS011;1536;51.098;6.414;2024-01-11T13:58:27;35.92;;;23.08;;
3052;SDS011;1536;51.098;6.414;2024-01-11T14:00:54;36.13;;;23.80;;
3052;SDS011;1536;51.098;6.414;2024-01-11T14:03:21;37.95;;;21.20;;
3052;SDS011;1536;51.098;6.414;2024-01-11T14:05:47;36.33;;;21.88;;
3052;SDS011;1536;51.098;6.414;2024-01-11T14:08:15;32.92;;;21.95;;
3052;SDS011;1536;51.098;6.414;2024-01-11T14:10:42;36.40;;;22.52;;
3052;SDS011;1536;51.098;6.414;2024-01-11T14:13:10;33.80;;;23.15;;
3052;SDS011;1536;51.098;6.414;2024-01-11T14:15:37;30.90;;;20.63;;
3052;SDS011;1536;51.098;6.414;2024-01-11T14:18:05;30.02;;;20.80;;
3052;SDS011;1536;51.098;6.414;2024-01-11T14:20:32;33.22;;;22.20;;
3052;SDS011;1536;51.098;6.414;2024-01-11T14:22:59;28.27;;;22.02;;
3052;SDS011;1536;51.098;6.414;2024-01-11T14:25:28;33.58;;;21.67;;
3052;SDS011;1536;51.098;6.414;2024-01-11T14:27:55;28.88;;;21.02;;
3052;SDS011;1536;51.098;6.414;2024-01-11T14:30:22;29.50;;;19.92;;
3052;SDS011;1536;51.098;6.414;2024-01-11T14:32:48;24.85;;;19.05;;
3052;SDS011;1536;51.098;6.414;2024-01-11T14:35:15;28.42;;;18.80;;
3052;SDS011;1536;51.098;6.414;2024-01-11T14:37:43;30.08;;;21.30;;
3052;SDS011;1536;51.098;6.414;2024-01-11T14:40:10;31.50;;;19.98;;
3052;SDS011;1536;51.098;6.414;2024-01-11T14:42:38;32.33;;;21.73;;
3052;SDS011;1536;51.098;6.414;2024-01-11T14:45:06;36.05;;;21.33;;
3052;SDS011;1536;51.098;6.414;2024-01-11T14:47:33;26.33;;;19.27;;
3052;SDS011;1536;51.098;6.414;2024-01-11T14:50:00;30.13;;;20.05;;